createdAt,value
2022-08-20T00:00:03.216Z,1027.86
2022-08-20T00:05:03.425Z,1027.86
2022-08-20T00:10:03.158Z,1027.86
2022-08-20T00:15:03.279Z,1027.85
2022-08-20T00:20:03.215Z,1027.82
2022-08-20T00:25:03.051Z,1027.78
2022-08-20T00:30:03.253Z,1027.75
2022-08-20T00:35:03.192Z,1027.71
2022-08-20T00:40:03.254Z,1027.71
2022-08-20T00:45:03.112Z,1027.65
2022-08-20T00:50:03.183Z,1027.7
2022-08-20T00:55:03.158Z,1027.66
2022-08-20T01:00:03.244Z,1027.67
2022-08-20T01:05:02.973Z,1027.59
2022-08-20T01:10:03.368Z,1027.55
2022-08-20T01:15:03.091Z,1027.62
2022-08-20T01:20:03.129Z,1027.65
2022-08-20T01:25:03.041Z,1027.7
2022-08-20T01:30:06.048Z,1027.58
2022-08-20T01:35:03.201Z,1027.54
2022-08-20T01:40:03.559Z,1027.58
2022-08-20T01:45:03.761Z,1027.59
2022-08-20T01:50:03.201Z,1027.64
2022-08-20T01:55:03.105Z,1027.51
2022-08-20T02:00:03.115Z,1027.52
2022-08-20T02:05:03.020Z,1027.46
2022-08-20T02:10:03.185Z,1027.39
2022-08-20T02:15:03.011Z,1027.32
2022-08-20T02:20:03.081Z,1027.34
2022-08-20T02:25:03.173Z,1027.3
2022-08-20T02:30:03.129Z,1027.24
2022-08-20T02:35:02.994Z,1027.27
2022-08-20T02:40:03.253Z,1027.2
2022-08-20T02:45:03.221Z,1027.26
2022-08-20T02:50:03.203Z,1027.28
2022-08-20T02:55:03.100Z,1027.21
2022-08-20T03:00:03.317Z,1027.17
2022-08-20T03:05:03.056Z,1027.08
2022-08-20T03:10:03.172Z,1027.06
2022-08-20T03:15:03.058Z,1027.01
2022-08-20T03:20:03.261Z,1027.08
2022-08-20T03:25:03.044Z,1027.02
2022-08-20T03:30:03.125Z,1027.0
2022-08-20T03:35:03.305Z,1026.98
2022-08-20T03:40:03.559Z,1026.93
2022-08-20T03:45:03.000Z,1026.76
2022-08-20T03:50:03.287Z,1026.74
2022-08-20T03:55:02.927Z,1026.73
2022-08-20T04:00:03.104Z,1026.7
2022-08-20T04:05:07.997Z,1026.6
2022-08-20T04:10:08.877Z,1026.53
2022-08-20T04:15:03.027Z,1026.39
2022-08-20T04:20:03.259Z,1026.35
2022-08-20T04:25:03.120Z,1026.32
2022-08-20T04:30:03.346Z,1026.26
2022-08-20T04:35:08.013Z,1026.23
2022-08-20T04:40:03.106Z,1026.18
2022-08-20T04:45:03.025Z,1026.13
2022-08-20T04:50:03.175Z,1026.08
2022-08-20T04:55:03.004Z,1026.04
2022-08-20T05:00:03.125Z,1026.04
2022-08-20T05:05:03.077Z,1026.0
2022-08-20T05:10:03.156Z,1025.98
2022-08-20T05:15:03.122Z,1025.95
2022-08-20T05:20:03.183Z,1025.93
2022-08-20T05:25:03.190Z,1025.87
2022-08-20T05:30:03.193Z,1025.78
2022-08-20T05:35:03.010Z,1025.72
2022-08-20T05:40:03.333Z,1025.64
2022-08-20T05:45:03.056Z,1025.62
2022-08-20T05:50:03.093Z,1025.48
2022-08-20T05:55:02.964Z,1025.48
2022-08-20T06:00:03.099Z,1025.43
2022-08-20T06:05:03.128Z,1025.39
2022-08-20T06:10:03.225Z,1025.29
2022-08-20T06:15:03.017Z,1025.2
2022-08-20T06:20:03.080Z,1025.16
2022-08-20T06:25:03.017Z,1025.14
2022-08-20T06:30:03.224Z,1025.17
2022-08-20T06:35:03.243Z,1025.17
2022-08-20T06:40:03.376Z,1025.18
2022-08-20T06:45:03.072Z,1025.18
2022-08-20T06:50:03.101Z,1025.11
2022-08-20T06:55:03.016Z,1025.09
2022-08-20T07:00:03.228Z,1025.13
2022-08-20T07:05:03.035Z,1025.1
2022-08-20T07:10:03.141Z,1025.09
2022-08-20T07:15:03.022Z,1025.08
2022-08-20T07:20:03.241Z,1025.04
2022-08-20T07:25:03.085Z,1025.08
2022-08-20T07:30:03.143Z,1025.04
2022-08-20T07:35:03.196Z,1025.02
2022-08-20T07:40:03.429Z,1025.08
2022-08-20T07:45:03.023Z,1025.11
2022-08-20T07:50:03.209Z,1025.11
2022-08-20T07:55:02.986Z,1025.16
2022-08-20T08:00:03.189Z,1025.2
2022-08-20T08:05:03.016Z,1025.21
2022-08-20T08:10:03.063Z,1025.29
2022-08-20T08:15:02.961Z,1025.3
2022-08-20T08:20:03.179Z,1025.42
2022-08-20T08:25:02.994Z,1025.47
2022-08-20T08:30:03.165Z,1025.48
2022-08-20T08:35:03.028Z,1025.52
2022-08-20T08:40:04.194Z,1025.65
2022-08-20T08:45:03.001Z,1025.7
2022-08-20T08:50:04.131Z,1025.81
2022-08-20T08:55:03.025Z,1025.69
2022-08-20T09:00:03.722Z,1025.85
2022-08-20T09:05:03.027Z,1025.95
2022-08-20T09:10:03.231Z,1026.05
2022-08-20T09:15:02.969Z,1026.21
2022-08-20T09:20:03.151Z,1026.32
2022-08-20T09:25:03.199Z,1026.33
2022-08-20T09:30:03.076Z,1026.31
2022-08-20T09:35:05.645Z,1026.32
2022-08-20T09:40:03.154Z,1026.37
2022-08-20T09:45:02.963Z,1026.48
2022-08-20T09:50:03.115Z,1026.51
2022-08-20T09:55:02.963Z,1026.53
2022-08-20T10:00:03.227Z,1026.54
2022-08-20T10:05:03.012Z,1026.55
2022-08-20T10:10:03.118Z,1026.57
2022-08-20T10:15:03.077Z,1026.65
2022-08-20T10:20:03.155Z,1026.68
2022-08-20T10:25:03.982Z,1026.67
2022-08-20T10:30:03.187Z,1026.73
2022-08-20T10:35:03.119Z,1026.78
2022-08-20T10:40:03.488Z,1026.81
2022-08-20T10:45:03.040Z,1026.83
2022-08-20T10:50:03.109Z,1026.92
2022-08-20T10:55:02.945Z,1026.86
2022-08-20T11:00:03.171Z,1026.88
2022-08-20T11:05:03.063Z,1026.98
2022-08-20T11:10:03.117Z,1027.05
2022-08-20T11:15:03.049Z,1027.1
2022-08-20T11:20:03.043Z,1027.16
2022-08-20T11:25:03.049Z,1027.18
2022-08-20T11:30:03.359Z,1027.17
2022-08-20T11:35:14.032Z,1027.19
2022-08-20T11:40:03.177Z,1027.32
2022-08-20T11:45:03.033Z,1027.4
2022-08-20T11:50:08.225Z,1027.44
2022-08-20T11:55:03.130Z,1027.59
2022-08-20T12:00:03.249Z,1027.69
2022-08-20T12:05:03.097Z,1027.68
2022-08-20T12:10:03.182Z,1027.73
2022-08-20T12:15:02.967Z,1027.82
2022-08-20T12:20:03.247Z,1027.93
2022-08-20T12:25:03.005Z,1028.01
2022-08-20T12:30:03.183Z,1028.08
2022-08-20T12:35:03.079Z,1028.07
2022-08-20T12:40:03.340Z,1028.1
2022-08-20T12:45:03.032Z,1028.03
2022-08-20T12:50:03.181Z,1028.03
2022-08-20T12:55:03.149Z,1028.08
2022-08-20T13:00:03.664Z,1028.14
2022-08-20T13:05:05.135Z,1028.24
2022-08-20T13:10:03.249Z,1028.24
2022-08-20T13:15:03.126Z,1028.18
2022-08-20T13:20:03.449Z,1028.16
2022-08-20T13:25:03.058Z,1028.19
2022-08-20T13:30:03.221Z,1028.19
2022-08-20T13:35:03.998Z,1028.1
2022-08-20T13:40:03.217Z,1028.05
2022-08-20T13:45:02.998Z,1028.08
2022-08-20T13:50:03.375Z,1028.11
2022-08-20T13:55:06.379Z,1028.2
2022-08-20T14:00:03.209Z,1028.25
2022-08-20T14:05:03.063Z,1028.24
2022-08-20T14:10:03.211Z,1028.11
2022-08-20T14:15:02.977Z,1028.15
2022-08-20T14:20:03.193Z,1028.01
2022-08-20T14:25:03.046Z,1027.94
2022-08-20T14:30:03.437Z,1027.86
2022-08-20T14:35:03.177Z,1027.68
2022-08-20T14:40:03.325Z,1027.59
2022-08-20T14:45:03.038Z,1027.55
2022-08-20T14:50:04.483Z,1027.48
2022-08-20T14:55:03.022Z,1027.42
2022-08-20T15:00:03.257Z,1027.4
2022-08-20T15:05:03.021Z,1027.38
2022-08-20T15:10:03.146Z,1027.29
2022-08-20T15:15:15.741Z,1027.25
2022-08-20T15:20:03.150Z,1027.1
2022-08-20T15:25:03.017Z,1027.07
2022-08-20T15:30:03.282Z,1026.92
2022-08-20T15:35:03.180Z,1026.81
2022-08-20T15:40:03.333Z,1026.7
2022-08-20T15:45:03.055Z,1026.65
2022-08-20T15:50:03.175Z,1026.61
2022-08-20T15:55:03.027Z,1026.45
2022-08-20T16:00:03.287Z,1026.4
2022-08-20T16:05:03.079Z,1026.31
2022-08-20T16:10:03.156Z,1026.27
2022-08-20T16:15:04.475Z,1026.2
2022-08-20T16:20:03.173Z,1026.11
2022-08-20T16:25:03.077Z,1025.97
2022-08-20T16:30:03.297Z,1025.96
2022-08-20T16:35:03.022Z,1025.93
2022-08-20T16:40:03.148Z,1025.83
2022-08-20T16:45:03.081Z,1025.68
2022-08-20T16:50:03.249Z,1025.49
2022-08-20T16:55:03.012Z,1025.41
2022-08-20T17:00:03.159Z,1025.33
2022-08-20T17:05:04.713Z,1025.22
2022-08-20T17:10:03.387Z,1025.12
2022-08-20T17:15:02.950Z,1025.04
2022-08-20T17:20:03.120Z,1024.95
2022-08-20T17:25:03.109Z,1024.91
2022-08-20T17:30:03.130Z,1024.79
2022-08-20T17:35:03.068Z,1024.72
2022-08-20T17:40:03.281Z,1024.79
2022-08-20T17:45:03.009Z,1024.68
2022-08-20T17:50:03.443Z,1024.56
2022-08-20T17:55:03.080Z,1024.5
2022-08-20T18:00:03.363Z,1024.48
2022-08-20T18:05:03.074Z,1024.43
2022-08-20T18:10:03.266Z,1024.39
2022-08-20T18:15:03.298Z,1024.38
2022-08-20T18:20:03.268Z,1024.34
2022-08-20T18:25:03.054Z,1024.28
2022-08-20T18:30:03.426Z,1024.24
2022-08-20T18:35:04.013Z,1024.18
2022-08-20T18:40:03.248Z,1024.14
2022-08-20T18:45:03.141Z,1024.16
2022-08-20T18:50:03.350Z,1024.18
2022-08-20T18:55:03.052Z,1024.15
2022-08-20T19:00:03.466Z,1024.18
2022-08-20T19:05:03.126Z,1024.16
2022-08-20T19:10:03.182Z,1024.17
2022-08-20T19:15:03.043Z,1024.17
2022-08-20T19:20:03.161Z,1024.08
2022-08-20T19:25:03.108Z,1024.08
2022-08-20T19:30:03.102Z,1024.02
2022-08-20T19:35:03.115Z,1024.04
2022-08-20T19:40:03.419Z,1024.0
2022-08-20T19:45:03.067Z,1023.96
2022-08-20T19:50:03.231Z,1023.9
2022-08-20T19:55:04.171Z,1023.9
2022-08-20T20:00:03.154Z,1023.89
2022-08-20T20:05:03.058Z,1023.9
2022-08-20T20:10:03.158Z,1023.92
2022-08-20T20:15:03.087Z,1023.95
2022-08-20T20:20:03.406Z,1024.01
2022-08-20T20:25:02.953Z,1023.96
2022-08-20T20:30:03.306Z,1024.02
2022-08-20T20:35:03.139Z,1024.05
2022-08-20T20:40:03.231Z,1024.04
2022-08-20T20:45:03.080Z,1024.01
2022-08-20T20:50:03.165Z,1024.02
2022-08-20T20:55:03.166Z,1024.05
2022-08-20T21:00:03.184Z,1024.09
2022-08-20T21:05:03.039Z,1024.12
2022-08-20T21:10:03.155Z,1024.12
2022-08-20T21:15:03.193Z,1024.17
2022-08-20T21:20:03.146Z,1024.17
2022-08-20T21:25:03.135Z,1024.17
2022-08-20T21:30:03.164Z,1024.21
2022-08-20T21:35:03.135Z,1024.23
2022-08-20T21:40:03.172Z,1024.17
2022-08-20T21:45:03.209Z,1024.21
2022-08-20T21:50:03.169Z,1024.21
2022-08-20T21:55:03.073Z,1024.21
2022-08-20T22:00:03.182Z,1024.23
2022-08-20T22:05:03.134Z,1024.25
2022-08-20T22:10:03.249Z,1024.28
2022-08-20T22:15:03.121Z,1024.3
2022-08-20T22:20:03.279Z,1024.38
2022-08-20T22:25:03.084Z,1024.4
2022-08-20T22:30:03.386Z,1024.4
2022-08-20T22:35:03.075Z,1024.49
2022-08-20T22:40:03.300Z,1024.55
2022-08-20T22:45:02.992Z,1024.59
2022-08-20T22:50:03.140Z,1024.62
2022-08-20T22:55:04.940Z,1024.67
2022-08-20T23:00:03.396Z,1024.73
2022-08-20T23:05:02.994Z,1024.75
2022-08-20T23:10:03.131Z,1024.83
2022-08-20T23:15:08.070Z,1024.88
2022-08-20T23:20:03.286Z,1024.95
2022-08-20T23:25:03.060Z,1024.95
2022-08-20T23:30:03.404Z,1024.99
2022-08-20T23:35:03.030Z,1025.12
2022-08-20T23:40:03.530Z,1025.12
2022-08-20T23:45:03.050Z,1025.11
2022-08-20T23:50:03.251Z,1025.12
2022-08-20T23:55:03.025Z,1025.09
